sensor_id;sensor_type;location;lat;lon;timestamp;P1;durP1;ratioP1;P2;durP2;ratioP2
13477;SDS011;12598;62.382;17.344;2022-07-30T00:00:36;0.50;;;0.25;;
13477;SDS011;12598;62.382;17.344;2022-07-30T00:01:38;1.30;;;0.35;;
13477;SDS011;12598;62.382;17.344;2022-07-30T00:02:40;0.93;;;0.50;;
13477;SDS011;12598;62.382;17.344;2022-07-30T00:03:43;0.90;;;0.40;;
13477;SDS011;12598;62.382;17.344;2022-07-30T00:04:45;0.55;;;0.35;;
13477;SDS011;12598;62.382;17.344;2022-07-30T00:05:47;0.50;;;0.40;;
13477;SDS011;12598;62.382;17.344;2022-07-30T00:06:49;0.75;;;0.47;;
13477;SDS011;12598;62.382;17.344;2022-07-30T00:07:51;0.30;;;0.28;;
13477;SDS011;12598;62.382;17.344;2022-07-30T00:08:53;0.52;;;0.30;;
13477;SDS011;12598;62.382;17.344;2022-07-30T00:09:55;0.50;;;0.45;;
13477;SDS011;12598;62.382;17.344;2022-07-30T00:10:56;0.65;;;0.43;;
13477;SDS011;12598;62.382;17.344;2022-07-30T00:11:58;0.73;;;0.50;;
13477;SDS011;12598;62.382;17.344;2022-07-30T00:13:02;1.50;;;0.35;;
13477;SDS011;12598;62.382;17.344;2022-07-30T00:14:04;1.48;;;0.70;;
13477;SDS011;12598;62.382;17.344;2022-07-30T00:15:06;0.63;;;0.50;;
13477;SDS011;12598;62.382;17.344;2022-07-30T00:16:08;1.02;;;0.40;;
13477;SDS011;12598;62.382;17.344;2022-07-30T00:17:10;1.20;;;0.30;;
13477;SDS011;12598;62.382;17.344;2022-07-30T00:18:12;0.40;;;0.32;;
13477;SDS011;12598;62.382;17.344;2022-07-30T00:19:15;1.23;;;0.38;;
13477;SDS011;12598;62.382;17.344;2022-07-30T00:20:18;0.68;;;0.50;;
13477;SDS011;12598;62.382;17.344;2022-07-30T00:21:20;1.50;;;0.43;;
13477;SDS011;12598;62.382;17.344;2022-07-30T00:22:39;0.45;;;0.38;;
13477;SDS011;12598;62.382;17.344;2022-07-30T00:23:41;0.73;;;0.50;;
13477;SDS011;12598;62.382;17.344;2022-07-30T00:25:01;0.95;;;0.25;;
13477;SDS011;12598;62.382;17.344;2022-07-30T00:26:03;0.50;;;0.38;;
13477;SDS011;12598;62.382;17.344;2022-07-30T00:27:07;0.73;;;0.38;;
13477;SDS011;12598;62.382;17.344;2022-07-30T00:28:09;0.35;;;0.30;;
13477;SDS011;12598;62.382;17.344;2022-07-30T00:29:11;0.40;;;0.30;;
13477;SDS011;12598;62.382;17.344;2022-07-30T00:30:13;1.23;;;0.47;;
13477;SDS011;12598;62.382;17.344;2022-07-30T00:31:16;1.85;;;0.30;;
13477;SDS011;12598;62.382;17.344;2022-07-30T00:32:18;0.60;;;0.50;;
13477;SDS011;12598;62.382;17.344;2022-07-30T00:33:20;0.63;;;0.57;;
13477;SDS011;12598;62.382;17.344;2022-07-30T00:34:22;0.57;;;0.40;;
13477;SDS011;12598;62.382;17.344;2022-07-30T00:35:25;0.73;;;0.52;;
13477;SDS011;12598;62.382;17.344;2022-07-30T00:36:28;0.45;;;0.30;;
13477;SDS011;12598;62.382;17.344;2022-07-30T00:37:30;0.35;;;0.35;;
13477;SDS011;12598;62.382;17.344;2022-07-30T00:38:31;0.70;;;0.50;;
13477;SDS011;12598;62.382;17.344;2022-07-30T00:39:33;0.40;;;0.30;;
13477;SDS011;12598;62.382;17.344;2022-07-30T00:40:35;1.20;;;0.38;;
13477;SDS011;12598;62.382;17.344;2022-07-30T00:41:56;0.63;;;0.60;;
13477;SDS011;12598;62.382;17.344;2022-07-30T00:43:02;1.05;;;0.50;;
13477;SDS011;12598;62.382;17.344;2022-07-30T00:44:04;1.38;;;0.57;;
13477;SDS011;12598;62.382;17.344;2022-07-30T00:45:06;1.40;;;0.50;;
13477;SDS011;12598;62.382;17.344;2022-07-30T00:46:09;0.77;;;0.30;;
13477;SDS011;12598;62.382;17.344;2022-07-30T00:47:11;1.73;;;0.40;;
13477;SDS011;12598;62.382;17.344;2022-07-30T00:48:14;0.98;;;0.40;;
13477;SDS011;12598;62.382;17.344;2022-07-30T00:49:16;0.93;;;0.50;;
13477;SDS011;12598;62.382;17.344;2022-07-30T00:50:18;1.00;;;0.30;;
13477;SDS011;12598;62.382;17.344;2022-07-30T00:51:21;0.38;;;0.30;;
13477;SDS011;12598;62.382;17.344;2022-07-30T00:52:23;0.60;;;0.50;;
13477;SDS011;12598;62.382;17.344;2022-07-30T00:53:25;0.55;;;0.40;;
13477;SDS011;12598;62.382;17.344;2022-07-30T00:54:27;1.55;;;0.50;;
13477;SDS011;12598;62.382;17.344;2022-07-30T00:55:30;0.60;;;0.30;;
13477;SDS011;12598;62.382;17.344;2022-07-30T00:56:32;0.60;;;0.30;;
13477;SDS011;12598;62.382;17.344;2022-07-30T00:57:34;0.82;;;0.40;;
13477;SDS011;12598;62.382;17.344;2022-07-30T00:58:36;0.55;;;0.40;;
13477;SDS011;12598;62.382;17.344;2022-07-30T00:59:38;0.55;;;0.30;;
13477;SDS011;12598;62.382;17.344;2022-07-30T01:00:39;0.38;;;0.30;;
13477;SDS011;12598;62.382;17.344;2022-07-30T01:01:42;1.50;;;0.40;;
13477;SDS011;12598;62.382;17.344;2022-07-30T01:02:44;0.40;;;0.25;;
13477;SDS011;12598;62.382;17.344;2022-07-30T01:03:46;0.60;;;0.45;;
13477;SDS011;12598;62.382;17.344;2022-07-30T01:04:48;0.40;;;0.40;;
13477;SDS011;12598;62.382;17.344;2022-07-30T01:05:53;0.80;;;0.40;;
13477;SDS011;12598;62.382;17.344;2022-07-30T01:06:55;0.43;;;0.38;;
13477;SDS011;12598;62.382;17.344;2022-07-30T01:07:57;0.50;;;0.40;;
13477;SDS011;12598;62.382;17.344;2022-07-30T01:08:59;1.10;;;0.30;;
13477;SDS011;12598;62.382;17.344;2022-07-30T01:10:02;0.40;;;0.40;;
13477;SDS011;12598;62.382;17.344;2022-07-30T01:11:04;1.27;;;0.32;;
13477;SDS011;12598;62.382;17.344;2022-07-30T01:12:08;0.73;;;0.57;;
13477;SDS011;12598;62.382;17.344;2022-07-30T01:13:11;0.28;;;0.25;;
13477;SDS011;12598;62.382;17.344;2022-07-30T01:14:13;0.50;;;0.40;;
13477;SDS011;12598;62.382;17.344;2022-07-30T01:15:15;1.65;;;0.25;;
13477;SDS011;12598;62.382;17.344;2022-07-30T01:16:18;0.55;;;0.40;;
13477;SDS011;12598;62.382;17.344;2022-07-30T01:17:20;0.93;;;0.57;;
13477;SDS011;12598;62.382;17.344;2022-07-30T01:18:22;0.30;;;0.30;;
13477;SDS011;12598;62.382;17.344;2022-07-30T01:19:45;0.35;;;0.30;;
13477;SDS011;12598;62.382;17.344;2022-07-30T01:21:03;1.10;;;0.30;;
13477;SDS011;12598;62.382;17.344;2022-07-30T01:23:24;0.43;;;0.40;;
13477;SDS011;12598;62.382;17.344;2022-07-30T01:24:34;0.75;;;0.60;;
13477;SDS011;12598;62.382;17.344;2022-07-30T01:25:45;0.55;;;0.52;;
13477;SDS011;12598;62.382;17.344;2022-07-30T01:27:02;2.03;;;0.50;;
13477;SDS011;12598;62.382;17.344;2022-07-30T01:28:08;0.43;;;0.40;;
13477;SDS011;12598;62.382;17.344;2022-07-30T01:29:12;0.50;;;0.40;;
13477;SDS011;12598;62.382;17.344;2022-07-30T01:30:19;0.50;;;0.40;;
13477;SDS011;12598;62.382;17.344;2022-07-30T01:31:23;1.27;;;0.50;;
13477;SDS011;12598;62.382;17.344;2022-07-30T01:32:27;1.20;;;0.50;;
13477;SDS011;12598;62.382;17.344;2022-07-30T01:33:31;0.40;;;0.40;;
13477;SDS011;12598;62.382;17.344;2022-07-30T01:34:37;1.05;;;0.50;;
13477;SDS011;12598;62.382;17.344;2022-07-30T01:35:40;0.80;;;0.50;;
13477;SDS011;12598;62.382;17.344;2022-07-30T01:36:45;0.60;;;0.60;;
13477;SDS011;12598;62.382;17.344;2022-07-30T01:37:48;1.30;;;0.40;;
13477;SDS011;12598;62.382;17.344;2022-07-30T01:38:51;0.50;;;0.45;;
13477;SDS011;12598;62.382;17.344;2022-07-30T01:39:54;2.33;;;0.45;;
13477;SDS011;12598;62.382;17.344;2022-07-30T01:40:57;0.65;;;0.47;;
13477;SDS011;12598;62.382;17.344;2022-07-30T01:42:00;0.40;;;0.38;;
13477;SDS011;12598;62.382;17.344;2022-07-30T01:43:05;1.48;;;0.68;;
13477;SDS011;12598;62.382;17.344;2022-07-30T01:44:10;2.15;;;0.40;;
13477;SDS011;12598;62.382;17.344;2022-07-30T01:45:13;1.80;;;0.50;;
13477;SDS011;12598;62.382;17.344;2022-07-30T01:46:16;0.77;;;0.40;;
13477;SDS011;12598;62.382;17.344;2022-07-30T01:47:22;0.45;;;0.40;;
13477;SDS011;12598;62.382;17.344;2022-07-30T01:48:25;0.65;;;0.30;;
13477;SDS011;12598;62.382;17.344;2022-07-30T01:49:29;1.25;;;0.40;;
13477;SDS011;12598;62.382;17.344;2022-07-30T01:50:34;0.40;;;0.40;;
13477;SDS011;12598;62.382;17.344;2022-07-30T01:51:37;0.60;;;0.47;;
13477;SDS011;12598;62.382;17.344;2022-07-30T01:52:43;1.33;;;0.50;;
13477;SDS011;12598;62.382;17.344;2022-07-30T01:53:49;0.40;;;0.32;;
13477;SDS011;12598;62.382;17.344;2022-07-30T01:54:54;0.43;;;0.30;;
13477;SDS011;12598;62.382;17.344;2022-07-30T01:55:59;0.40;;;0.35;;
13477;SDS011;12598;62.382;17.344;2022-07-30T01:57:03;0.30;;;0.30;;
13477;SDS011;12598;62.382;17.344;2022-07-30T01:58:09;1.13;;;0.40;;
13477;SDS011;12598;62.382;17.344;2022-07-30T01:59:15;0.65;;;0.35;;
13477;SDS011;12598;62.382;17.344;2022-07-30T02:00:21;0.30;;;0.30;;
13477;SDS011;12598;62.382;17.344;2022-07-30T02:01:25;1.75;;;0.35;;
13477;SDS011;12598;62.382;17.344;2022-07-30T02:02:33;0.90;;;0.47;;
13477;SDS011;12598;62.382;17.344;2022-07-30T02:03:36;1.30;;;0.40;;
13477;SDS011;12598;62.382;17.344;2022-07-30T02:04:39;0.47;;;0.40;;
13477;SDS011;12598;62.382;17.344;2022-07-30T02:05:42;1.25;;;0.43;;
13477;SDS011;12598;62.382;17.344;2022-07-30T02:08:06;0.50;;;0.40;;
13477;SDS011;12598;62.382;17.344;2022-07-30T02:09:14;0.80;;;0.40;;
13477;SDS011;12598;62.382;17.344;2022-07-30T02:10:31;0.63;;;0.30;;
13477;SDS011;12598;62.382;17.344;2022-07-30T02:11:51;0.45;;;0.30;;
13477;SDS011;12598;62.382;17.344;2022-07-30T02:13:16;0.50;;;0.30;;
13477;SDS011;12598;62.382;17.344;2022-07-30T02:14:44;0.32;;;0.22;;
13477;SDS011;12598;62.382;17.344;2022-07-30T02:17:12;0.28;;;0.20;;
13477;SDS011;12598;62.382;17.344;2022-07-30T02:18:33;0.40;;;0.35;;
13477;SDS011;12598;62.382;17.344;2022-07-30T02:19:40;0.75;;;0.40;;
13477;SDS011;12598;62.382;17.344;2022-07-30T02:20:50;0.98;;;0.35;;
13477;SDS011;12598;62.382;17.344;2022-07-30T02:21:58;0.63;;;0.30;;
13477;SDS011;12598;62.382;17.344;2022-07-30T02:23:09;0.40;;;0.30;;
13477;SDS011;12598;62.382;17.344;2022-07-30T02:24:14;0.30;;;0.28;;
13477;SDS011;12598;62.382;17.344;2022-07-30T02:25:21;1.13;;;0.28;;
13477;SDS011;12598;62.382;17.344;2022-07-30T02:26:25;1.15;;;0.40;;
13477;SDS011;12598;62.382;17.344;2022-07-30T02:27:30;1.30;;;0.40;;
13477;SDS011;12598;62.382;17.344;2022-07-30T02:28:38;1.27;;;0.20;;
13477;SDS011;12598;62.382;17.344;2022-07-30T02:29:44;0.30;;;0.25;;
13477;SDS011;12598;62.382;17.344;2022-07-30T02:30:50;0.65;;;0.30;;
13477;SDS011;12598;62.382;17.344;2022-07-30T02:31:55;0.60;;;0.30;;
13477;SDS011;12598;62.382;17.344;2022-07-30T02:33:01;0.98;;;0.22;;
13477;SDS011;12598;62.382;17.344;2022-07-30T02:34:06;0.70;;;0.40;;
13477;SDS011;12598;62.382;17.344;2022-07-30T02:35:19;0.28;;;0.20;;
13477;SDS011;12598;62.382;17.344;2022-07-30T02:36:23;0.57;;;0.40;;
13477;SDS011;12598;62.382;17.344;2022-07-30T02:37:26;1.25;;;0.22;;
13477;SDS011;12598;62.382;17.344;2022-07-30T02:38:44;0.40;;;0.25;;
13477;SDS011;12598;62.382;17.344;2022-07-30T02:39:48;0.35;;;0.30;;
13477;SDS011;12598;62.382;17.344;2022-07-30T02:40:56;0.30;;;0.30;;
13477;SDS011;12598;62.382;17.344;2022-07-30T02:42:01;0.60;;;0.20;;
13477;SDS011;12598;62.382;17.344;2022-07-30T02:43:04;1.30;;;0.30;;
13477;SDS011;12598;62.382;17.344;2022-07-30T02:44:06;0.43;;;0.30;;
13477;SDS011;12598;62.382;17.344;2022-07-30T02:45:11;0.50;;;0.47;;
13477;SDS011;12598;62.382;17.344;2022-07-30T02:46:17;0.43;;;0.43;;
13477;SDS011;12598;62.382;17.344;2022-07-30T02:48:01;0.70;;;0.50;;
13477;SDS011;12598;62.382;17.344;2022-07-30T02:49:11;1.02;;;0.40;;
13477;SDS011;12598;62.382;17.344;2022-07-30T02:50:15;1.00;;;0.50;;
13477;SDS011;12598;62.382;17.344;2022-07-30T02:51:19;0.70;;;0.40;;
13477;SDS011;12598;62.382;17.344;2022-07-30T02:52:23;1.20;;;0.60;;
13477;SDS011;12598;62.382;17.344;2022-07-30T02:53:27;0.73;;;0.50;;
13477;SDS011;12598;62.382;17.344;2022-07-30T02:54:30;1.52;;;0.45;;
13477;SDS011;12598;62.382;17.344;2022-07-30T02:55:33;1.23;;;0.40;;
13477;SDS011;12598;62.382;17.344;2022-07-30T02:56:39;0.40;;;0.30;;
13477;SDS011;12598;62.382;17.344;2022-07-30T02:57:41;0.30;;;0.30;;
13477;SDS011;12598;62.382;17.344;2022-07-30T02:58:45;0.63;;;0.50;;
13477;SDS011;12598;62.382;17.344;2022-07-30T02:59:49;0.68;;;0.35;;
13477;SDS011;12598;62.382;17.344;2022-07-30T03:00:53;0.40;;;0.30;;
13477;SDS011;12598;62.382;17.344;2022-07-30T03:01:57;0.82;;;0.30;;
13477;SDS011;12598;62.382;17.344;2022-07-30T03:03:00;0.52;;;0.30;;
13477;SDS011;12598;62.382;17.344;2022-07-30T03:04:06;0.22;;;0.20;;
13477;SDS011;12598;62.382;17.344;2022-07-30T03:05:09;0.68;;;0.32;;
13477;SDS011;12598;62.382;17.344;2022-07-30T03:06:14;1.20;;;0.40;;
13477;SDS011;12598;62.382;17.344;2022-07-30T03:07:17;0.82;;;0.40;;
13477;SDS011;12598;62.382;17.344;2022-07-30T03:08:20;0.63;;;0.50;;
13477;SDS011;12598;62.382;17.344;2022-07-30T03:09:23;0.80;;;0.30;;
13477;SDS011;12598;62.382;17.344;2022-07-30T03:10:26;1.25;;;0.30;;
13477;SDS011;12598;62.382;17.344;2022-07-30T03:11:30;0.35;;;0.30;;
13477;SDS011;12598;62.382;17.344;2022-07-30T03:12:34;0.40;;;0.32;;
13477;SDS011;12598;62.382;17.344;2022-07-30T03:13:38;0.32;;;0.32;;
13477;SDS011;12598;62.382;17.344;2022-07-30T03:14:40;1.70;;;0.50;;
13477;SDS011;12598;62.382;17.344;2022-07-30T03:15:45;1.05;;;0.35;;
13477;SDS011;12598;62.382;17.344;2022-07-30T03:16:54;0.55;;;0.50;;
13477;SDS011;12598;62.382;17.344;2022-07-30T03:17:58;0.40;;;0.32;;
13477;SDS011;12598;62.382;17.344;2022-07-30T03:19:04;0.68;;;0.40;;
13477;SDS011;12598;62.382;17.344;2022-07-30T03:20:12;0.38;;;0.30;;
13477;SDS011;12598;62.382;17.344;2022-07-30T03:21:18;0.40;;;0.30;;
13477;SDS011;12598;62.382;17.344;2022-07-30T03:22:22;0.93;;;0.40;;
13477;SDS011;12598;62.382;17.344;2022-07-30T03:23:33;0.40;;;0.40;;
13477;SDS011;12598;62.382;17.344;2022-07-30T03:24:38;0.73;;;0.30;;
13477;SDS011;12598;62.382;17.344;2022-07-30T03:25:49;1.63;;;0.30;;
13477;SDS011;12598;62.382;17.344;2022-07-30T03:26:55;1.20;;;0.40;;
13477;SDS011;12598;62.382;17.344;2022-07-30T03:27:59;0.47;;;0.30;;
13477;SDS011;12598;62.382;17.344;2022-07-30T03:29:05;0.82;;;0.40;;
13477;SDS011;12598;62.382;17.344;2022-07-30T03:30:11;0.32;;;0.30;;
13477;SDS011;12598;62.382;17.344;2022-07-30T03:31:14;0.57;;;0.30;;
13477;SDS011;12598;62.382;17.344;2022-07-30T03:32:16;0.40;;;0.20;;
13477;SDS011;12598;62.382;17.344;2022-07-30T03:33:27;0.38;;;0.30;;
13477;SDS011;12598;62.382;17.344;2022-07-30T03:34:39;0.40;;;0.30;;
13477;SDS011;12598;62.382;17.344;2022-07-30T03:35:46;0.30;;;0.20;;
13477;SDS011;12598;62.382;17.344;2022-07-30T03:36:50;1.65;;;0.30;;
13477;SDS011;12598;62.382;17.344;2022-07-30T03:37:54;2.15;;;0.30;;
13477;SDS011;12598;62.382;17.344;2022-07-30T03:38:57;0.40;;;0.30;;
13477;SDS011;12598;62.382;17.344;2022-07-30T03:40:00;0.85;;;0.35;;
13477;SDS011;12598;62.382;17.344;2022-07-30T03:41:04;0.30;;;0.30;;
13477;SDS011;12598;62.382;17.344;2022-07-30T03:42:07;0.47;;;0.30;;
13477;SDS011;12598;62.382;17.344;2022-07-30T03:43:11;0.50;;;0.30;;
13477;SDS011;12598;62.382;17.344;2022-07-30T03:44:34;1.20;;;0.30;;
13477;SDS011;12598;62.382;17.344;2022-07-30T03:45:39;1.13;;;0.30;;
13477;SDS011;12598;62.382;17.344;2022-07-30T03:46:44;0.30;;;0.20;;
13477;SDS011;12598;62.382;17.344;2022-07-30T03:47:47;0.50;;;0.20;;
13477;SDS011;12598;62.382;17.344;2022-07-30T03:48:50;1.13;;;0.30;;
13477;SDS011;12598;62.382;17.344;2022-07-30T03:49:53;0.30;;;0.30;;
13477;SDS011;12598;62.382;17.344;2022-07-30T03:50:55;0.20;;;0.20;;
13477;SDS011;12598;62.382;17.344;2022-07-30T03:52:00;0.20;;;0.20;;
13477;SDS011;12598;62.382;17.344;2022-07-30T03:53:03;0.38;;;0.30;;
13477;SDS011;12598;62.382;17.344;2022-07-30T03:54:11;0.45;;;0.30;;
13477;SDS011;12598;62.382;17.344;2022-07-30T03:55:14;1.80;;;0.40;;
13477;SDS011;12598;62.382;17.344;2022-07-30T03:56:23;0.28;;;0.20;;
13477;SDS011;12598;62.382;17.344;2022-07-30T03:57:57;1.40;;;0.25;;
13477;SDS011;12598;62.382;17.344;2022-07-30T03:59:03;0.45;;;0.38;;
13477;SDS011;12598;62.382;17.344;2022-07-30T04:00:11;0.43;;;0.30;;
13477;SDS011;12598;62.382;17.344;2022-07-30T04:01:23;0.50;;;0.40;;
13477;SDS011;12598;62.382;17.344;2022-07-30T04:02:29;1.27;;;0.30;;
13477;SDS011;12598;62.382;17.344;2022-07-30T04:03:48;0.50;;;0.25;;
13477;SDS011;12598;62.382;17.344;2022-07-30T04:04:50;0.90;;;0.30;;
13477;SDS011;12598;62.382;17.344;2022-07-30T04:05:52;0.30;;;0.20;;
13477;SDS011;12598;62.382;17.344;2022-07-30T04:06:57;1.45;;;0.50;;
13477;SDS011;12598;62.382;17.344;2022-07-30T04:08:00;0.30;;;0.30;;
13477;SDS011;12598;62.382;17.344;2022-07-30T04:09:08;0.40;;;0.30;;
13477;SDS011;12598;62.382;17.344;2022-07-30T04:10:12;0.55;;;0.30;;
13477;SDS011;12598;62.382;17.344;2022-07-30T04:11:33;0.28;;;0.22;;
13477;SDS011;12598;62.382;17.344;2022-07-30T04:12:44;0.65;;;0.30;;
13477;SDS011;12598;62.382;17.344;2022-07-30T04:13:46;0.82;;;0.40;;
13477;SDS011;12598;62.382;17.344;2022-07-30T04:14:50;0.25;;;0.20;;
13477;SDS011;12598;62.382;17.344;2022-07-30T04:15:58;1.25;;;0.30;;
13477;SDS011;12598;62.382;17.344;2022-07-30T04:17:26;0.57;;;0.20;;
13477;SDS011;12598;62.382;17.344;2022-07-30T04:18:39;0.40;;;0.30;;
13477;SDS011;12598;62.382;17.344;2022-07-30T04:19:52;0.40;;;0.30;;
13477;SDS011;12598;62.382;17.344;2022-07-30T04:21:01;0.40;;;0.30;;
13477;SDS011;12598;62.382;17.344;2022-07-30T04:22:06;1.70;;;0.25;;
13477;SDS011;12598;62.382;17.344;2022-07-30T04:23:11;0.45;;;0.43;;
13477;SDS011;12598;62.382;17.344;2022-07-30T04:24:16;0.50;;;0.30;;
13477;SDS011;12598;62.382;17.344;2022-07-30T04:25:20;0.82;;;0.55;;
13477;SDS011;12598;62.382;17.344;2022-07-30T04:26:25;0.50;;;0.30;;
13477;SDS011;12598;62.382;17.344;2022-07-30T04:27:27;1.17;;;0.20;;
13477;SDS011;12598;62.382;17.344;2022-07-30T04:28:31;1.08;;;0.35;;
13477;SDS011;12598;62.382;17.344;2022-07-30T04:29:35;0.90;;;0.43;;
13477;SDS011;12598;62.382;17.344;2022-07-30T04:30:37;0.43;;;0.40;;
13477;SDS011;12598;62.382;17.344;2022-07-30T04:31:39;0.30;;;0.30;;
13477;SDS011;12598;62.382;17.344;2022-07-30T04:33:05;0.50;;;0.40;;
13477;SDS011;12598;62.382;17.344;2022-07-30T04:34:25;0.60;;;0.60;;
13477;SDS011;12598;62.382;17.344;2022-07-30T04:35:28;0.68;;;0.30;;
13477;SDS011;12598;62.382;17.344;2022-07-30T04:36:55;0.70;;;0.30;;
13477;SDS011;12598;62.382;17.344;2022-07-30T04:37:58;1.10;;;0.38;;
13477;SDS011;12598;62.382;17.344;2022-07-30T04:39:01;0.40;;;0.38;;
13477;SDS011;12598;62.382;17.344;2022-07-30T04:40:04;0.50;;;0.40;;
13477;SDS011;12598;62.382;17.344;2022-07-30T04:41:06;0.43;;;0.38;;
13477;SDS011;12598;62.382;17.344;2022-07-30T04:42:28;0.70;;;0.50;;
13477;SDS011;12598;62.382;17.344;2022-07-30T04:43:39;0.40;;;0.40;;
13477;SDS011;12598;62.382;17.344;2022-07-30T04:44:42;0.30;;;0.28;;
13477;SDS011;12598;62.382;17.344;2022-07-30T04:46:10;0.40;;;0.25;;
13477;SDS011;12598;62.382;17.344;2022-07-30T04:47:13;0.30;;;0.30;;
13477;SDS011;12598;62.382;17.344;2022-07-30T04:48:28;0.40;;;0.38;;
13477;SDS011;12598;62.382;17.344;2022-07-30T04:49:45;0.65;;;0.25;;
13477;SDS011;12598;62.382;17.344;2022-07-30T04:50:48;0.30;;;0.30;;
13477;SDS011;12598;62.382;17.344;2022-07-30T04:51:55;0.30;;;0.25;;
13477;SDS011;12598;62.382;17.344;2022-07-30T04:52:58;0.25;;;0.20;;
13477;SDS011;12598;62.382;17.344;2022-07-30T04:54:04;0.30;;;0.30;;
13477;SDS011;12598;62.382;17.344;2022-07-30T04:55:17;0.45;;;0.30;;
13477;SDS011;12598;62.382;17.344;2022-07-30T04:56:22;1.05;;;0.40;;
13477;SDS011;12598;62.382;17.344;2022-07-30T04:57:26;0.45;;;0.35;;
13477;SDS011;12598;62.382;17.344;2022-07-30T04:58:29;0.68;;;0.38;;
13477;SDS011;12598;62.382;17.344;2022-07-30T04:59:33;0.55;;;0.55;;
13477;SDS011;12598;62.382;17.344;2022-07-30T05:00:37;0.45;;;0.40;;
13477;SDS011;12598;62.382;17.344;2022-07-30T05:01:47;0.82;;;0.40;;
13477;SDS011;12598;62.382;17.344;2022-07-30T05:02:51;0.95;;;0.40;;
13477;SDS011;12598;62.382;17.344;2022-07-30T05:03:55;0.47;;;0.35;;
13477;SDS011;12598;62.382;17.344;2022-07-30T05:04:59;0.60;;;0.40;;
13477;SDS011;12598;62.382;17.344;2022-07-30T05:06:04;0.40;;;0.40;;
13477;SDS011;12598;62.382;17.344;2022-07-30T05:07:10;0.40;;;0.40;;
13477;SDS011;12598;62.382;17.344;2022-07-30T05:08:15;0.70;;;0.30;;
13477;SDS011;12598;62.382;17.344;2022-07-30T05:09:17;0.68;;;0.40;;
13477;SDS011;12598;62.382;17.344;2022-07-30T05:10:20;1.13;;;0.57;;
13477;SDS011;12598;62.382;17.344;2022-07-30T05:11:22;1.15;;;0.40;;
13477;SDS011;12598;62.382;17.344;2022-07-30T05:12:34;1.95;;;0.30;;
13477;SDS011;12598;62.382;17.344;2022-07-30T05:13:46;0.43;;;0.43;;
13477;SDS011;12598;62.382;17.344;2022-07-30T05:14:53;1.23;;;0.40;;
13477;SDS011;12598;62.382;17.344;2022-07-30T05:15:55;1.92;;;0.45;;
13477;SDS011;12598;62.382;17.344;2022-07-30T05:16:59;0.43;;;0.40;;
13477;SDS011;12598;62.382;17.344;2022-07-30T05:18:02;1.50;;;0.40;;
13477;SDS011;12598;62.382;17.344;2022-07-30T05:19:08;1.00;;;0.43;;
13477;SDS011;12598;62.382;17.344;2022-07-30T05:20:10;0.85;;;0.57;;
13477;SDS011;12598;62.382;17.344;2022-07-30T05:21:44;0.60;;;0.50;;
13477;SDS011;12598;62.382;17.344;2022-07-30T05:22:47;0.50;;;0.30;;
13477;SDS011;12598;62.382;17.344;2022-07-30T05:23:53;0.60;;;0.40;;
13477;SDS011;12598;62.382;17.344;2022-07-30T05:25:04;1.20;;;0.60;;
13477;SDS011;12598;62.382;17.344;2022-07-30T05:26:19;0.98;;;0.40;;
13477;SDS011;12598;62.382;17.344;2022-07-30T05:27:25;0.47;;;0.35;;
13477;SDS011;12598;62.382;17.344;2022-07-30T05:28:27;0.63;;;0.40;;
13477;SDS011;12598;62.382;17.344;2022-07-30T05:29:32;0.95;;;0.32;;
13477;SDS011;12598;62.382;17.344;2022-07-30T05:30:44;1.77;;;0.60;;
13477;SDS011;12598;62.382;17.344;2022-07-30T05:31:50;1.23;;;0.52;;
13477;SDS011;12598;62.382;17.344;2022-07-30T05:32:54;1.05;;;0.50;;
13477;SDS011;12598;62.382;17.344;2022-07-30T05:33:56;1.85;;;0.40;;
13477;SDS011;12598;62.382;17.344;2022-07-30T05:35:10;1.48;;;0.35;;
13477;SDS011;12598;62.382;17.344;2022-07-30T05:36:13;0.95;;;0.50;;
13477;SDS011;12598;62.382;17.344;2022-07-30T05:37:15;1.13;;;0.47;;
13477;SDS011;12598;62.382;17.344;2022-07-30T05:38:17;0.60;;;0.57;;
13477;SDS011;12598;62.382;17.344;2022-07-30T05:39:46;0.73;;;0.45;;
13477;SDS011;12598;62.382;17.344;2022-07-30T05:41:30;0.50;;;0.40;;
13477;SDS011;12598;62.382;17.344;2022-07-30T05:42:36;2.67;;;0.80;;
13477;SDS011;12598;62.382;17.344;2022-07-30T05:43:41;0.75;;;0.50;;
13477;SDS011;12598;62.382;17.344;2022-07-30T05:44:43;0.73;;;0.60;;
13477;SDS011;12598;62.382;17.344;2022-07-30T05:45:45;2.42;;;0.60;;
13477;SDS011;12598;62.382;17.344;2022-07-30T05:46:47;0.88;;;0.47;;
13477;SDS011;12598;62.382;17.344;2022-07-30T05:47:49;0.50;;;0.50;;
13477;SDS011;12598;62.382;17.344;2022-07-30T05:48:51;0.50;;;0.40;;
13477;SDS011;12598;62.382;17.344;2022-07-30T05:49:54;1.25;;;0.55;;
13477;SDS011;12598;62.382;17.344;2022-07-30T05:50:56;1.08;;;0.60;;
13477;SDS011;12598;62.382;17.344;2022-07-30T05:51:58;0.57;;;0.45;;
13477;SDS011;12598;62.382;17.344;2022-07-30T05:53:01;0.90;;;0.70;;
13477;SDS011;12598;62.382;17.344;2022-07-30T05:54:21;0.63;;;0.40;;
13477;SDS011;12598;62.382;17.344;2022-07-30T05:55:44;1.95;;;0.60;;
13477;SDS011;12598;62.382;17.344;2022-07-30T05:57:09;1.02;;;0.50;;
13477;SDS011;12598;62.382;17.344;2022-07-30T05:58:12;0.70;;;0.60;;
13477;SDS011;12598;62.382;17.344;2022-07-30T05:59:14;1.90;;;0.50;;
13477;SDS011;12598;62.382;17.344;2022-07-30T06:00:35;0.40;;;0.40;;
13477;SDS011;12598;62.382;17.344;2022-07-30T06:01:37;0.70;;;0.63;;
13477;SDS011;12598;62.382;17.344;2022-07-30T06:02:47;1.23;;;0.70;;
13477;SDS011;12598;62.382;17.344;2022-07-30T06:03:55;0.75;;;0.50;;
13477;SDS011;12598;62.382;17.344;2022-07-30T06:05:19;1.70;;;0.80;;
13477;SDS011;12598;62.382;17.344;2022-07-30T06:06:22;0.90;;;0.65;;
13477;SDS011;12598;62.382;17.344;2022-07-30T06:07:25;0.45;;;0.45;;
13477;SDS011;12598;62.382;17.344;2022-07-30T06:08:29;1.27;;;0.73;;
13477;SDS011;12598;62.382;17.344;2022-07-30T06:09:32;0.60;;;0.60;;
13477;SDS011;12598;62.382;17.344;2022-07-30T06:10:37;0.98;;;0.73;;
13477;SDS011;12598;62.382;17.344;2022-07-30T06:11:39;2.97;;;0.88;;
13477;SDS011;12598;62.382;17.344;2022-07-30T06:12:41;2.20;;;0.80;;
13477;SDS011;12598;62.382;17.344;2022-07-30T06:13:43;1.60;;;1.08;;
13477;SDS011;12598;62.382;17.344;2022-07-30T06:14:46;2.67;;;0.80;;
13477;SDS011;12598;62.382;17.344;2022-07-30T06:15:55;0.80;;;0.80;;
13477;SDS011;12598;62.382;17.344;2022-07-30T06:16:57;0.75;;;0.70;;
13477;SDS011;12598;62.382;17.344;2022-07-30T06:18:02;0.88;;;0.88;;
13477;SDS011;12598;62.382;17.344;2022-07-30T06:19:19;1.00;;;0.73;;
13477;SDS011;12598;62.382;17.344;2022-07-30T06:20:22;1.13;;;0.60;;
13477;SDS011;12598;62.382;17.344;2022-07-30T06:21:47;1.05;;;0.82;;
13477;SDS011;12598;62.382;17.344;2022-07-30T06:23:07;1.63;;;0.88;;
13477;SDS011;12598;62.382;17.344;2022-07-30T06:24:47;0.90;;;0.73;;
13477;SDS011;12598;62.382;17.344;2022-07-30T06:25:52;2.63;;;1.10;;
13477;SDS011;12598;62.382;17.344;2022-07-30T06:26:54;0.93;;;0.70;;
13477;SDS011;12598;62.382;17.344;2022-07-30T06:27:56;0.85;;;0.85;;
13477;SDS011;12598;62.382;17.344;2022-07-30T06:29:16;1.10;;;1.00;;
13477;SDS011;12598;62.382;17.344;2022-07-30T06:30:18;1.05;;;0.90;;
13477;SDS011;12598;62.382;17.344;2022-07-30T06:31:30;1.25;;;0.90;;
13477;SDS011;12598;62.382;17.344;2022-07-30T06:32:33;1.35;;;0.90;;
13477;SDS011;12598;62.382;17.344;2022-07-30T06:33:35;2.00;;;0.80;;
13477;SDS011;12598;62.382;17.344;2022-07-30T06:34:37;1.60;;;1.42;;
13477;SDS011;12598;62.382;17.344;2022-07-30T06:35:40;2.50;;;1.02;;
13477;SDS011;12598;62.382;17.344;2022-07-30T06:36:44;1.08;;;0.98;;
13477;SDS011;12598;62.382;17.344;2022-07-30T06:37:52;1.10;;;1.00;;